sensor_id;sensor_type;location;lat;lon;timestamp;P1;durP1;ratioP1;P2;durP2;ratioP2
24301;SDS011;12421;49.732;20.078;2023-05-10T00:07:22;12.60;;;5.40;;
24301;SDS011;12421;49.732;20.078;2023-05-10T00:17:25;7.20;;;5.00;;
24301;SDS011;12421;49.732;20.078;2023-05-10T00:27:29;8.00;;;5.70;;
24301;SDS011;12421;49.732;20.078;2023-05-10T00:37:32;9.70;;;4.80;;
24301;SDS011;12421;49.732;20.078;2023-05-10T00:47:35;8.00;;;4.40;;
24301;SDS011;12421;49.732;20.078;2023-05-10T00:57:38;9.60;;;4.50;;
24301;SDS011;12421;49.732;20.078;2023-05-10T01:07:42;6.10;;;4.30;;
24301;SDS011;12421;49.732;20.078;2023-05-10T01:17:45;6.90;;;4.90;;
24301;SDS011;12421;49.732;20.078;2023-05-10T01:28:07;8.30;;;4.80;;
24301;SDS011;12421;49.732;20.078;2023-05-10T01:38:40;8.20;;;4.60;;
24301;SDS011;12421;49.732;20.078;2023-05-10T01:48:54;5.40;;;3.90;;
24301;SDS011;12421;49.732;20.078;2023-05-10T01:59:03;7.30;;;5.10;;
24301;SDS011;12421;49.732;20.078;2023-05-10T02:09:11;14.00;;;5.70;;
24301;SDS011;12421;49.732;20.078;2023-05-10T02:19:17;6.80;;;4.60;;
24301;SDS011;12421;49.732;20.078;2023-05-10T02:29:22;6.50;;;4.60;;
24301;SDS011;12421;49.732;20.078;2023-05-10T02:39:27;7.70;;;4.50;;
24301;SDS011;12421;49.732;20.078;2023-05-10T02:49:32;10.70;;;5.30;;
24301;SDS011;12421;49.732;20.078;2023-05-10T02:59:35;10.10;;;4.60;;
24301;SDS011;12421;49.732;20.078;2023-05-10T03:09:38;7.50;;;5.00;;
24301;SDS011;12421;49.732;20.078;2023-05-10T03:19:54;8.20;;;5.80;;
24301;SDS011;12421;49.732;20.078;2023-05-10T03:29:59;8.90;;;4.90;;
24301;SDS011;12421;49.732;20.078;2023-05-10T03:40:07;11.80;;;4.80;;
24301;SDS011;12421;49.732;20.078;2023-05-10T03:50:13;10.80;;;4.80;;
24301;SDS011;12421;49.732;20.078;2023-05-10T04:00:17;6.40;;;4.30;;
24301;SDS011;12421;49.732;20.078;2023-05-10T04:10:22;8.20;;;4.90;;
24301;SDS011;12421;49.732;20.078;2023-05-10T04:20:26;14.40;;;5.90;;
24301;SDS011;12421;49.732;20.078;2023-05-10T04:30:29;15.90;;;6.10;;
24301;SDS011;12421;49.732;20.078;2023-05-10T04:40:32;10.10;;;6.60;;
24301;SDS011;12421;49.732;20.078;2023-05-10T04:50:35;10.70;;;6.30;;
24301;SDS011;12421;49.732;20.078;2023-05-10T05:00:39;10.20;;;5.90;;
24301;SDS011;12421;49.732;20.078;2023-05-10T05:10:42;10.70;;;5.60;;
24301;SDS011;12421;49.732;20.078;2023-05-10T05:20:45;7.40;;;5.00;;
24301;SDS011;12421;49.732;20.078;2023-05-10T05:30:49;18.70;;;8.10;;
24301;SDS011;12421;49.732;20.078;2023-05-10T05:40:52;9.10;;;5.50;;
24301;SDS011;12421;49.732;20.078;2023-05-10T05:50:55;8.50;;;5.20;;
24301;SDS011;12421;49.732;20.078;2023-05-10T06:00:59;9.00;;;6.00;;
24301;SDS011;12421;49.732;20.078;2023-05-10T06:11:02;7.70;;;3.70;;
24301;SDS011;12421;49.732;20.078;2023-05-10T06:21:07;6.70;;;4.20;;
24301;SDS011;12421;49.732;20.078;2023-05-10T06:31:10;6.20;;;3.30;;
24301;SDS011;12421;49.732;20.078;2023-05-10T06:41:14;6.80;;;4.50;;
24301;SDS011;12421;49.732;20.078;2023-05-10T06:51:17;7.20;;;3.60;;
24301;SDS011;12421;49.732;20.078;2023-05-10T07:01:21;5.10;;;3.10;;
24301;SDS011;12421;49.732;20.078;2023-05-10T07:11:24;5.50;;;2.90;;
24301;SDS011;12421;49.732;20.078;2023-05-10T07:21:27;3.70;;;2.40;;
24301;SDS011;12421;49.732;20.078;2023-05-10T07:31:31;3.80;;;2.20;;
24301;SDS011;12421;49.732;20.078;2023-05-10T07:41:34;4.10;;;1.70;;
24301;SDS011;12421;49.732;20.078;2023-05-10T07:51:37;3.00;;;1.60;;
24301;SDS011;12421;49.732;20.078;2023-05-10T08:01:41;3.10;;;1.40;;
24301;SDS011;12421;49.732;20.078;2023-05-10T08:11:45;3.20;;;1.70;;
24301;SDS011;12421;49.732;20.078;2023-05-10T08:21:48;4.50;;;1.50;;
24301;SDS011;12421;49.732;20.078;2023-05-10T08:31:51;3.40;;;1.60;;
24301;SDS011;12421;49.732;20.078;2023-05-10T08:41:54;3.60;;;1.70;;
24301;SDS011;12421;49.732;20.078;2023-05-10T08:52:03;4.10;;;1.80;;
24301;SDS011;12421;49.732;20.078;2023-05-10T09:02:08;2.20;;;1.50;;
24301;SDS011;12421;49.732;20.078;2023-05-10T09:12:14;7.10;;;1.90;;
24301;SDS011;12421;49.732;20.078;2023-05-10T09:22:18;3.70;;;1.60;;
24301;SDS011;12421;49.732;20.078;2023-05-10T09:32:21;2.90;;;1.70;;
24301;SDS011;12421;49.732;20.078;2023-05-10T09:42:24;4.60;;;1.90;;
24301;SDS011;12421;49.732;20.078;2023-05-10T09:52:28;5.80;;;1.70;;
24301;SDS011;12421;49.732;20.078;2023-05-10T10:02:31;4.20;;;1.90;;
24301;SDS011;12421;49.732;20.078;2023-05-10T10:12:34;3.90;;;2.60;;
24301;SDS011;12421;49.732;20.078;2023-05-10T10:22:38;4.20;;;2.40;;
24301;SDS011;12421;49.732;20.078;2023-05-10T10:43:23;2.40;;;1.50;;
24301;SDS011;12421;49.732;20.078;2023-05-10T10:53:28;4.30;;;1.50;;
24301;SDS011;12421;49.732;20.078;2023-05-10T11:03:31;2.50;;;1.40;;
24301;SDS011;12421;49.732;20.078;2023-05-10T11:13:38;2.50;;;1.40;;
24301;SDS011;12421;49.732;20.078;2023-05-10T11:23:54;6.10;;;1.70;;
24301;SDS011;12421;49.732;20.078;2023-05-10T11:34:01;3.80;;;1.40;;
24301;SDS011;12421;49.732;20.078;2023-05-10T11:44:04;3.50;;;1.90;;
24301;SDS011;12421;49.732;20.078;2023-05-10T11:54:08;3.40;;;1.70;;
24301;SDS011;12421;49.732;20.078;2023-05-10T12:04:13;5.60;;;1.50;;
24301;SDS011;12421;49.732;20.078;2023-05-10T12:14:17;6.50;;;1.60;;
24301;SDS011;12421;49.732;20.078;2023-05-10T12:24:22;4.10;;;2.20;;
24301;SDS011;12421;49.732;20.078;2023-05-10T12:34:33;3.50;;;1.60;;
24301;SDS011;12421;49.732;20.078;2023-05-10T12:44:39;3.90;;;1.50;;
24301;SDS011;12421;49.732;20.078;2023-05-10T12:54:42;2.80;;;1.60;;
24301;SDS011;12421;49.732;20.078;2023-05-10T13:04:45;3.20;;;1.50;;
24301;SDS011;12421;49.732;20.078;2023-05-10T13:14:52;3.90;;;1.60;;
24301;SDS011;12421;49.732;20.078;2023-05-10T13:24:55;3.30;;;1.90;;
24301;SDS011;12421;49.732;20.078;2023-05-10T13:34:58;5.80;;;1.70;;
24301;SDS011;12421;49.732;20.078;2023-05-10T13:45:02;4.30;;;1.90;;
24301;SDS011;12421;49.732;20.078;2023-05-10T13:55:05;2.40;;;1.50;;
24301;SDS011;12421;49.732;20.078;2023-05-10T14:05:08;4.40;;;1.50;;
24301;SDS011;12421;49.732;20.078;2023-05-10T14:15:12;3.50;;;1.60;;
24301;SDS011;12421;49.732;20.078;2023-05-10T14:25:15;4.00;;;2.10;;
24301;SDS011;12421;49.732;20.078;2023-05-10T14:35:19;2.80;;;1.70;;
24301;SDS011;12421;49.732;20.078;2023-05-10T14:45:23;3.60;;;2.00;;
24301;SDS011;12421;49.732;20.078;2023-05-10T14:55:26;4.50;;;2.50;;
24301;SDS011;12421;49.732;20.078;2023-05-10T15:05:29;8.60;;;4.70;;
24301;SDS011;12421;49.732;20.078;2023-05-10T15:15:33;3.90;;;1.90;;
24301;SDS011;12421;49.732;20.078;2023-05-10T15:25:36;7.70;;;3.90;;
24301;SDS011;12421;49.732;20.078;2023-05-10T15:35:40;4.40;;;2.60;;
24301;SDS011;12421;49.732;20.078;2023-05-10T15:45:43;10.20;;;3.50;;
24301;SDS011;12421;49.732;20.078;2023-05-10T15:55:46;5.40;;;2.70;;
24301;SDS011;12421;49.732;20.078;2023-05-10T16:05:50;6.10;;;3.50;;
24301;SDS011;12421;49.732;20.078;2023-05-10T16:15:53;4.30;;;1.90;;
24301;SDS011;12421;49.732;20.078;2023-05-10T16:25:56;3.40;;;2.10;;
24301;SDS011;12421;49.732;20.078;2023-05-10T16:36:00;5.00;;;3.40;;
24301;SDS011;12421;49.732;20.078;2023-05-10T16:46:08;7.90;;;3.20;;
24301;SDS011;12421;49.732;20.078;2023-05-10T16:56:12;4.90;;;2.50;;
24301;SDS011;12421;49.732;20.078;2023-05-10T17:06:15;18.40;;;2.80;;
24301;SDS011;12421;49.732;20.078;2023-05-10T17:16:18;11.50;;;4.00;;
24301;SDS011;12421;49.732;20.078;2023-05-10T17:26:23;11.40;;;4.10;;
24301;SDS011;12421;49.732;20.078;2023-05-10T17:36:26;8.90;;;3.70;;
24301;SDS011;12421;49.732;20.078;2023-05-10T17:46:30;7.50;;;2.90;;
24301;SDS011;12421;49.732;20.078;2023-05-10T17:56:33;6.70;;;3.70;;
24301;SDS011;12421;49.732;20.078;2023-05-10T18:06:36;9.70;;;4.60;;
24301;SDS011;12421;49.732;20.078;2023-05-10T18:16:40;13.10;;;4.70;;
24301;SDS011;12421;49.732;20.078;2023-05-10T18:26:45;30.50;;;17.40;;
24301;SDS011;12421;49.732;20.078;2023-05-10T18:36:48;32.10;;;18.40;;
24301;SDS011;12421;49.732;20.078;2023-05-10T18:46:51;40.90;;;20.00;;
24301;SDS011;12421;49.732;20.078;2023-05-10T18:56:56;28.70;;;17.10;;
24301;SDS011;12421;49.732;20.078;2023-05-10T19:07:00;30.70;;;16.20;;
24301;SDS011;12421;49.732;20.078;2023-05-10T19:17:04;28.30;;;15.20;;
24301;SDS011;12421;49.732;20.078;2023-05-10T19:27:10;27.00;;;13.20;;
24301;SDS011;12421;49.732;20.078;2023-05-10T19:37:13;21.80;;;11.90;;
24301;SDS011;12421;49.732;20.078;2023-05-10T19:47:19;27.60;;;13.80;;
24301;SDS011;12421;49.732;20.078;2023-05-10T19:57:22;23.00;;;12.00;;
24301;SDS011;12421;49.732;20.078;2023-05-10T20:07:25;18.60;;;10.00;;
24301;SDS011;12421;49.732;20.078;2023-05-10T20:17:28;29.40;;;11.80;;
24301;SDS011;12421;49.732;20.078;2023-05-10T20:27:32;18.90;;;11.20;;
24301;SDS011;12421;49.732;20.078;2023-05-10T20:37:35;16.10;;;10.50;;
24301;SDS011;12421;49.732;20.078;2023-05-10T20:47:39;17.70;;;8.50;;
24301;SDS011;12421;49.732;20.078;2023-05-10T20:57:43;11.40;;;7.40;;
24301;SDS011;12421;49.732;20.078;2023-05-10T21:07:46;12.30;;;6.60;;
24301;SDS011;12421;49.732;20.078;2023-05-10T21:17:51;16.80;;;8.30;;
24301;SDS011;12421;49.732;20.078;2023-05-10T21:27:55;10.50;;;7.00;;
24301;SDS011;12421;49.732;20.078;2023-05-10T21:37:58;11.70;;;7.00;;
24301;SDS011;12421;49.732;20.078;2023-05-10T21:48:01;9.60;;;6.10;;
24301;SDS011;12421;49.732;20.078;2023-05-10T21:58:05;9.90;;;6.20;;
24301;SDS011;12421;49.732;20.078;2023-05-10T22:08:08;11.70;;;6.80;;
24301;SDS011;12421;49.732;20.078;2023-05-10T22:18:11;17.50;;;6.60;;
24301;SDS011;12421;49.732;20.078;2023-05-10T22:28:14;10.20;;;7.20;;
24301;SDS011;12421;49.732;20.078;2023-05-10T22:38:18;9.80;;;6.40;;
24301;SDS011;12421;49.732;20.078;2023-05-10T22:48:21;14.60;;;6.60;;
24301;SDS011;12421;49.732;20.078;2023-05-10T22:58:24;12.40;;;7.10;;
24301;SDS011;12421;49.732;20.078;2023-05-10T23:08:28;10.90;;;6.70;;
24301;SDS011;12421;49.732;20.078;2023-05-10T23:18:31;9.50;;;6.40;;
24301;SDS011;12421;49.732;20.078;2023-05-10T23:28:34;12.90;;;6.80;;
24301;SDS011;12421;49.732;20.078;2023-05-10T23:38:37;8.70;;;6.10;;
24301;SDS011;12421;49.732;20.078;2023-05-10T23:48:41;10.10;;;6.70;;
24301;SDS011;12421;49.732;20.078;2023-05-10T23:58:44;10.00;;;5.80;;
